sensor_id;sensor_type;location;lat;lon;timestamp;temperature;humidity
15413;DHT22;7805;49.554;7.632;2023-07-30T00:01:56;20.10;99.90
15413;DHT22;7805;49.554;7.632;2023-07-30T00:04:22;20.10;99.90
15413;DHT22;7805;49.554;7.632;2023-07-30T00:06:48;20.10;99.90
15413;DHT22;7805;49.554;7.632;2023-07-30T00:09:14;20.10;99.90
15413;DHT22;7805;49.554;7.632;2023-07-30T00:11:39;20.20;99.90
15413;DHT22;7805;49.554;7.632;2023-07-30T00:14:05;20.10;99.90
15413;DHT22;7805;49.554;7.632;2023-07-30T00:16:31;20.10;99.90
15413;DHT22;7805;49.554;7.632;2023-07-30T00:18:56;20.20;99.90
15413;DHT22;7805;49.554;7.632;2023-07-30T00:21:22;20.10;99.90
15413;DHT22;7805;49.554;7.632;2023-07-30T00:23:48;20.10;99.90
15413;DHT22;7805;49.554;7.632;2023-07-30T00:26:14;20.40;99.90
15413;DHT22;7805;49.554;7.632;2023-07-30T00:28:39;20.00;99.90
15413;DHT22;7805;49.554;7.632;2023-07-30T00:31:05;20.00;99.90
15413;DHT22;7805;49.554;7.632;2023-07-30T00:33:30;19.90;99.90
15413;DHT22;7805;49.554;7.632;2023-07-30T00:35:56;19.80;99.90
15413;DHT22;7805;49.554;7.632;2023-07-30T00:38:21;19.90;99.90
15413;DHT22;7805;49.554;7.632;2023-07-30T00:40:47;19.90;99.90
15413;DHT22;7805;49.554;7.632;2023-07-30T00:43:12;20.00;99.90
15413;DHT22;7805;49.554;7.632;2023-07-30T00:45:40;19.90;99.90
15413;DHT22;7805;49.554;7.632;2023-07-30T00:48:06;19.90;99.90
15413;DHT22;7805;49.554;7.632;2023-07-30T00:50:33;19.90;99.90
15413;DHT22;7805;49.554;7.632;2023-07-30T00:52:59;19.80;99.90
15413;DHT22;7805;49.554;7.632;2023-07-30T00:55:24;20.00;99.90
15413;DHT22;7805;49.554;7.632;2023-07-30T00:57:51;19.70;99.90
15413;DHT22;7805;49.554;7.632;2023-07-30T01:00:17;19.90;99.90
15413;DHT22;7805;49.554;7.632;2023-07-30T01:02:43;19.70;99.90
15413;DHT22;7805;49.554;7.632;2023-07-30T01:05:09;19.70;99.90
15413;DHT22;7805;49.554;7.632;2023-07-30T01:07:34;19.70;99.90
15413;DHT22;7805;49.554;7.632;2023-07-30T01:10:01;19.70;99.90
15413;DHT22;7805;49.554;7.632;2023-07-30T01:12:29;19.70;99.90
15413;DHT22;7805;49.554;7.632;2023-07-30T01:14:55;19.70;99.90
15413;DHT22;7805;49.554;7.632;2023-07-30T01:17:22;19.70;99.90
15413;DHT22;7805;49.554;7.632;2023-07-30T01:19:48;19.80;99.90
15413;DHT22;7805;49.554;7.632;2023-07-30T01:22:19;19.70;99.90
15413;DHT22;7805;49.554;7.632;2023-07-30T01:24:46;20.00;99.90
15413;DHT22;7805;49.554;7.632;2023-07-30T01:27:22;19.80;99.90
15413;DHT22;7805;49.554;7.632;2023-07-30T01:29:52;19.80;99.90
15413;DHT22;7805;49.554;7.632;2023-07-30T01:32:23;19.80;99.90
15413;DHT22;7805;49.554;7.632;2023-07-30T01:34:52;19.90;99.90
15413;DHT22;7805;49.554;7.632;2023-07-30T01:37:17;19.90;99.90
15413;DHT22;7805;49.554;7.632;2023-07-30T01:39:44;19.70;99.90
15413;DHT22;7805;49.554;7.632;2023-07-30T01:42:13;19.70;99.90
15413;DHT22;7805;49.554;7.632;2023-07-30T01:44:39;19.90;99.90
15413;DHT22;7805;49.554;7.632;2023-07-30T01:47:04;19.80;99.90
15413;DHT22;7805;49.554;7.632;2023-07-30T01:49:30;19.80;99.90
15413;DHT22;7805;49.554;7.632;2023-07-30T01:51:55;19.70;99.90
15413;DHT22;7805;49.554;7.632;2023-07-30T01:54:21;19.70;99.90
15413;DHT22;7805;49.554;7.632;2023-07-30T01:56:47;19.70;99.90
15413;DHT22;7805;49.554;7.632;2023-07-30T01:59:12;19.70;99.90
15413;DHT22;7805;49.554;7.632;2023-07-30T02:01:38;19.60;99.90
15413;DHT22;7805;49.554;7.632;2023-07-30T02:04:03;19.70;99.90
15413;DHT22;7805;49.554;7.632;2023-07-30T02:06:29;19.60;99.90
15413;DHT22;7805;49.554;7.632;2023-07-30T02:08:55;19.90;99.90
15413;DHT22;7805;49.554;7.632;2023-07-30T02:11:20;19.70;99.90
15413;DHT22;7805;49.554;7.632;2023-07-30T02:13:46;19.50;99.90
15413;DHT22;7805;49.554;7.632;2023-07-30T02:16:11;19.10;99.90
15413;DHT22;7805;49.554;7.632;2023-07-30T02:18:37;19.40;99.90
15413;DHT22;7805;49.554;7.632;2023-07-30T02:21:02;19.40;99.90
15413;DHT22;7805;49.554;7.632;2023-07-30T02:23:29;19.40;99.90
15413;DHT22;7805;49.554;7.632;2023-07-30T02:25:54;19.40;99.90
15413;DHT22;7805;49.554;7.632;2023-07-30T02:28:20;19.40;99.90
15413;DHT22;7805;49.554;7.632;2023-07-30T02:30:45;19.30;99.90
15413;DHT22;7805;49.554;7.632;2023-07-30T02:33:11;19.40;99.90
15413;DHT22;7805;49.554;7.632;2023-07-30T02:35:37;19.40;99.90
15413;DHT22;7805;49.554;7.632;2023-07-30T02:38:02;19.40;99.90
15413;DHT22;7805;49.554;7.632;2023-07-30T02:40:28;19.40;99.90
15413;DHT22;7805;49.554;7.632;2023-07-30T02:42:54;19.40;99.90
15413;DHT22;7805;49.554;7.632;2023-07-30T02:45:20;19.40;99.90
15413;DHT22;7805;49.554;7.632;2023-07-30T02:47:45;19.40;99.90
15413;DHT22;7805;49.554;7.632;2023-07-30T02:50:11;19.40;99.90
15413;DHT22;7805;49.554;7.632;2023-07-30T02:52:36;19.30;99.90
15413;DHT22;7805;49.554;7.632;2023-07-30T02:55:02;19.30;99.90
15413;DHT22;7805;49.554;7.632;2023-07-30T02:57:28;19.40;99.90
15413;DHT22;7805;49.554;7.632;2023-07-30T02:59:53;19.30;99.90
15413;DHT22;7805;49.554;7.632;2023-07-30T03:02:19;19.30;99.90
15413;DHT22;7805;49.554;7.632;2023-07-30T03:04:44;19.30;99.90
15413;DHT22;7805;49.554;7.632;2023-07-30T03:07:10;19.30;99.90
15413;DHT22;7805;49.554;7.632;2023-07-30T03:09:36;19.30;99.90
15413;DHT22;7805;49.554;7.632;2023-07-30T03:12:01;19.30;99.90
15413;DHT22;7805;49.554;7.632;2023-07-30T03:14:27;19.30;99.90
15413;DHT22;7805;49.554;7.632;2023-07-30T03:16:53;19.30;99.90
15413;DHT22;7805;49.554;7.632;2023-07-30T03:19:18;19.30;99.90
15413;DHT22;7805;49.554;7.632;2023-07-30T03:21:44;19.30;99.90
15413;DHT22;7805;49.554;7.632;2023-07-30T03:24:09;19.20;99.90
15413;DHT22;7805;49.554;7.632;2023-07-30T03:26:35;19.30;99.90
15413;DHT22;7805;49.554;7.632;2023-07-30T03:29:00;19.30;99.90
15413;DHT22;7805;49.554;7.632;2023-07-30T03:31:26;19.30;99.90
15413;DHT22;7805;49.554;7.632;2023-07-30T03:33:53;19.40;99.90
15413;DHT22;7805;49.554;7.632;2023-07-30T03:36:19;19.30;99.90
15413;DHT22;7805;49.554;7.632;2023-07-30T03:38:45;19.50;99.90
15413;DHT22;7805;49.554;7.632;2023-07-30T03:41:10;19.20;99.90
15413;DHT22;7805;49.554;7.632;2023-07-30T03:43:36;19.30;99.90
15413;DHT22;7805;49.554;7.632;2023-07-30T03:46:02;19.30;99.90
15413;DHT22;7805;49.554;7.632;2023-07-30T03:48:28;19.30;99.90
15413;DHT22;7805;49.554;7.632;2023-07-30T03:50:54;19.40;99.90
15413;DHT22;7805;49.554;7.632;2023-07-30T03:53:20;19.30;99.90
15413;DHT22;7805;49.554;7.632;2023-07-30T03:55:46;19.40;99.90
15413;DHT22;7805;49.554;7.632;2023-07-30T03:58:12;19.40;99.90
15413;DHT22;7805;49.554;7.632;2023-07-30T04:00:37;19.40;99.90
15413;DHT22;7805;49.554;7.632;2023-07-30T04:03:03;19.40;99.90
15413;DHT22;7805;49.554;7.632;2023-07-30T04:05:29;19.30;99.90
15413;DHT22;7805;49.554;7.632;2023-07-30T04:07:55;19.30;99.90
15413;DHT22;7805;49.554;7.632;2023-07-30T04:10:20;19.30;99.90
15413;DHT22;7805;49.554;7.632;2023-07-30T04:12:46;19.30;99.90
15413;DHT22;7805;49.554;7.632;2023-07-30T04:15:12;19.30;99.90
15413;DHT22;7805;49.554;7.632;2023-07-30T04:17:38;19.30;99.90
15413;DHT22;7805;49.554;7.632;2023-07-30T04:20:04;19.30;99.90
15413;DHT22;7805;49.554;7.632;2023-07-30T04:22:30;19.30;99.90
15413;DHT22;7805;49.554;7.632;2023-07-30T04:24:56;19.30;99.90
15413;DHT22;7805;49.554;7.632;2023-07-30T04:27:21;19.30;99.90
15413;DHT22;7805;49.554;7.632;2023-07-30T04:29:47;19.30;99.90
15413;DHT22;7805;49.554;7.632;2023-07-30T04:32:13;19.20;99.90
15413;DHT22;7805;49.554;7.632;2023-07-30T04:34:38;19.20;99.90
15413;DHT22;7805;49.554;7.632;2023-07-30T04:37:04;19.10;99.90
15413;DHT22;7805;49.554;7.632;2023-07-30T04:39:32;19.10;99.90
15413;DHT22;7805;49.554;7.632;2023-07-30T04:41:57;19.10;99.90
15413;DHT22;7805;49.554;7.632;2023-07-30T04:44:23;19.10;99.90
15413;DHT22;7805;49.554;7.632;2023-07-30T04:46:49;19.30;99.90
15413;DHT22;7805;49.554;7.632;2023-07-30T04:49:14;19.30;99.90
15413;DHT22;7805;49.554;7.632;2023-07-30T04:51:40;19.30;99.90
15413;DHT22;7805;49.554;7.632;2023-07-30T04:54:05;19.70;99.90
15413;DHT22;7805;49.554;7.632;2023-07-30T04:56:31;19.30;99.90
15413;DHT22;7805;49.554;7.632;2023-07-30T04:58:57;19.30;99.90
15413;DHT22;7805;49.554;7.632;2023-07-30T05:01:24;19.30;99.90
15413;DHT22;7805;49.554;7.632;2023-07-30T05:03:49;19.40;99.90
15413;DHT22;7805;49.554;7.632;2023-07-30T05:06:15;19.50;99.90
15413;DHT22;7805;49.554;7.632;2023-07-30T05:08:40;19.60;99.90
15413;DHT22;7805;49.554;7.632;2023-07-30T05:11:06;19.50;99.90
15413;DHT22;7805;49.554;7.632;2023-07-30T05:13:32;19.60;99.90
15413;DHT22;7805;49.554;7.632;2023-07-30T05:15:57;19.80;99.90
15413;DHT22;7805;49.554;7.632;2023-07-30T05:18:23;19.70;99.90
15413;DHT22;7805;49.554;7.632;2023-07-30T05:20:48;19.80;99.90
15413;DHT22;7805;49.554;7.632;2023-07-30T05:23:14;19.80;99.90
15413;DHT22;7805;49.554;7.632;2023-07-30T05:25:40;19.90;99.90
15413;DHT22;7805;49.554;7.632;2023-07-30T05:28:05;19.90;99.90
15413;DHT22;7805;49.554;7.632;2023-07-30T05:32:59;20.10;99.90
15413;DHT22;7805;49.554;7.632;2023-07-30T05:35:24;20.20;99.90
15413;DHT22;7805;49.554;7.632;2023-07-30T05:37:50;20.80;99.90
15413;DHT22;7805;49.554;7.632;2023-07-30T05:40:16;20.40;99.90
15413;DHT22;7805;49.554;7.632;2023-07-30T05:42:41;20.40;99.90
15413;DHT22;7805;49.554;7.632;2023-07-30T05:45:07;20.50;99.90
15413;DHT22;7805;49.554;7.632;2023-07-30T05:47:33;20.50;99.90
15413;DHT22;7805;49.554;7.632;2023-07-30T05:49:59;20.50;99.90
15413;DHT22;7805;49.554;7.632;2023-07-30T05:52:24;20.50;99.90
15413;DHT22;7805;49.554;7.632;2023-07-30T05:54:50;20.50;99.90
15413;DHT22;7805;49.554;7.632;2023-07-30T05:57:15;20.50;99.90
15413;DHT22;7805;49.554;7.632;2023-07-30T05:59:41;20.40;99.90
15413;DHT22;7805;49.554;7.632;2023-07-30T06:02:07;20.40;99.90
15413;DHT22;7805;49.554;7.632;2023-07-30T06:04:32;20.30;99.90
15413;DHT22;7805;49.554;7.632;2023-07-30T06:06:59;20.40;99.90
15413;DHT22;7805;49.554;7.632;2023-07-30T06:09:25;20.40;99.90
15413;DHT22;7805;49.554;7.632;2023-07-30T06:11:51;20.40;99.90
15413;DHT22;7805;49.554;7.632;2023-07-30T06:14:17;20.40;99.90
15413;DHT22;7805;49.554;7.632;2023-07-30T06:16:42;20.50;99.90
15413;DHT22;7805;49.554;7.632;2023-07-30T06:19:08;20.50;99.90
15413;DHT22;7805;49.554;7.632;2023-07-30T06:21:34;20.50;99.90
15413;DHT22;7805;49.554;7.632;2023-07-30T06:24:00;20.60;99.90
15413;DHT22;7805;49.554;7.632;2023-07-30T06:26:25;20.70;99.90
15413;DHT22;7805;49.554;7.632;2023-07-30T06:28:51;20.70;99.90
15413;DHT22;7805;49.554;7.632;2023-07-30T06:31:16;20.80;99.90
15413;DHT22;7805;49.554;7.632;2023-07-30T06:33:42;20.70;99.90
15413;DHT22;7805;49.554;7.632;2023-07-30T06:36:07;20.70;99.90
15413;DHT22;7805;49.554;7.632;2023-07-30T06:38:33;20.80;99.90
15413;DHT22;7805;49.554;7.632;2023-07-30T06:40:59;20.90;99.90
15413;DHT22;7805;49.554;7.632;2023-07-30T06:43:24;21.00;99.90
15413;DHT22;7805;49.554;7.632;2023-07-30T06:45:50;21.00;99.90
15413;DHT22;7805;49.554;7.632;2023-07-30T06:48:15;20.90;99.90
15413;DHT22;7805;49.554;7.632;2023-07-30T06:50:41;21.10;99.90
15413;DHT22;7805;49.554;7.632;2023-07-30T06:53:07;21.30;99.90
15413;DHT22;7805;49.554;7.632;2023-07-30T06:55:32;21.40;99.90
15413;DHT22;7805;49.554;7.632;2023-07-30T06:57:59;21.50;99.90
15413;DHT22;7805;49.554;7.632;2023-07-30T07:00:24;21.60;99.90
15413;DHT22;7805;49.554;7.632;2023-07-30T07:02:50;21.70;99.90
15413;DHT22;7805;49.554;7.632;2023-07-30T07:05:16;21.90;99.90
15413;DHT22;7805;49.554;7.632;2023-07-30T07:07:41;22.30;99.90
15413;DHT22;7805;49.554;7.632;2023-07-30T07:10:07;22.10;99.90
15413;DHT22;7805;49.554;7.632;2023-07-30T07:12:33;22.10;99.90
15413;DHT22;7805;49.554;7.632;2023-07-30T07:14:58;22.10;99.90
15413;DHT22;7805;49.554;7.632;2023-07-30T07:17:27;21.90;99.90
15413;DHT22;7805;49.554;7.632;2023-07-30T07:19:52;21.90;99.90
15413;DHT22;7805;49.554;7.632;2023-07-30T07:22:18;22.40;99.90
15413;DHT22;7805;49.554;7.632;2023-07-30T07:24:45;22.20;99.90
15413;DHT22;7805;49.554;7.632;2023-07-30T07:27:11;22.00;99.90
15413;DHT22;7805;49.554;7.632;2023-07-30T07:29:37;22.40;99.90
15413;DHT22;7805;49.554;7.632;2023-07-30T07:32:03;22.70;99.90
15413;DHT22;7805;49.554;7.632;2023-07-30T07:34:28;22.70;99.90
15413;DHT22;7805;49.554;7.632;2023-07-30T07:36:54;22.80;99.90
15413;DHT22;7805;49.554;7.632;2023-07-30T07:39:20;22.80;99.90
15413;DHT22;7805;49.554;7.632;2023-07-30T07:41:45;22.90;99.90
15413;DHT22;7805;49.554;7.632;2023-07-30T07:44:11;23.20;99.90
15413;DHT22;7805;49.554;7.632;2023-07-30T07:46:36;23.30;99.90
15413;DHT22;7805;49.554;7.632;2023-07-30T07:49:02;23.40;99.90
15413;DHT22;7805;49.554;7.632;2023-07-30T07:51:27;23.40;99.90
15413;DHT22;7805;49.554;7.632;2023-07-30T07:53:53;23.30;99.90
15413;DHT22;7805;49.554;7.632;2023-07-30T07:56:19;23.10;99.90
15413;DHT22;7805;49.554;7.632;2023-07-30T07:58:44;23.00;99.90
15413;DHT22;7805;49.554;7.632;2023-07-30T08:01:10;23.00;99.90
15413;DHT22;7805;49.554;7.632;2023-07-30T08:03:35;23.00;99.90
15413;DHT22;7805;49.554;7.632;2023-07-30T08:06:01;23.10;99.90
15413;DHT22;7805;49.554;7.632;2023-07-30T08:08:27;23.00;99.90
15413;DHT22;7805;49.554;7.632;2023-07-30T08:10:53;22.80;99.90
15413;DHT22;7805;49.554;7.632;2023-07-30T08:13:19;22.70;99.90
15413;DHT22;7805;49.554;7.632;2023-07-30T08:15:45;22.60;99.90
15413;DHT22;7805;49.554;7.632;2023-07-30T08:18:11;22.80;99.90
15413;DHT22;7805;49.554;7.632;2023-07-30T08:20:37;22.80;99.90
15413;DHT22;7805;49.554;7.632;2023-07-30T08:23:02;22.90;99.90
15413;DHT22;7805;49.554;7.632;2023-07-30T08:25:28;22.40;99.90
15413;DHT22;7805;49.554;7.632;2023-07-30T08:27:54;22.10;99.90
15413;DHT22;7805;49.554;7.632;2023-07-30T08:30:19;21.80;99.90
15413;DHT22;7805;49.554;7.632;2023-07-30T08:32:45;21.80;99.90
15413;DHT22;7805;49.554;7.632;2023-07-30T08:35:10;21.80;99.90
15413;DHT22;7805;49.554;7.632;2023-07-30T08:37:36;21.90;99.90
15413;DHT22;7805;49.554;7.632;2023-07-30T08:40:02;22.00;99.90
15413;DHT22;7805;49.554;7.632;2023-07-30T08:42:29;22.10;99.90
15413;DHT22;7805;49.554;7.632;2023-07-30T08:44:54;22.40;99.90
15413;DHT22;7805;49.554;7.632;2023-07-30T08:47:20;22.70;99.90
15413;DHT22;7805;49.554;7.632;2023-07-30T08:49:45;22.50;99.90
15413;DHT22;7805;49.554;7.632;2023-07-30T08:52:11;22.10;99.90
15413;DHT22;7805;49.554;7.632;2023-07-30T08:54:38;21.90;99.90
15413;DHT22;7805;49.554;7.632;2023-07-30T08:57:04;21.50;99.90
15413;DHT22;7805;49.554;7.632;2023-07-30T08:59:33;21.30;99.90
15413;DHT22;7805;49.554;7.632;2023-07-30T09:02:04;21.30;99.90
15413;DHT22;7805;49.554;7.632;2023-07-30T09:04:36;21.50;99.90
15413;DHT22;7805;49.554;7.632;2023-07-30T09:07:03;21.60;99.90
15413;DHT22;7805;49.554;7.632;2023-07-30T09:09:28;21.50;99.90
15413;DHT22;7805;49.554;7.632;2023-07-30T09:11:55;21.90;99.90
15413;DHT22;7805;49.554;7.632;2023-07-30T09:14:21;22.10;99.90
15413;DHT22;7805;49.554;7.632;2023-07-30T09:16:47;22.50;99.90
15413;DHT22;7805;49.554;7.632;2023-07-30T09:19:18;22.70;99.90
15413;DHT22;7805;49.554;7.632;2023-07-30T09:21:44;22.80;99.90
15413;DHT22;7805;49.554;7.632;2023-07-30T09:24:10;22.00;99.90
15413;DHT22;7805;49.554;7.632;2023-07-30T09:26:43;21.80;99.90
15413;DHT22;7805;49.554;7.632;2023-07-30T09:29:09;21.90;99.90
15413;DHT22;7805;49.554;7.632;2023-07-30T09:31:50;22.20;99.90
15413;DHT22;7805;49.554;7.632;2023-07-30T09:34:23;22.30;99.90
15413;DHT22;7805;49.554;7.632;2023-07-30T09:36:55;22.00;99.90
15413;DHT22;7805;49.554;7.632;2023-07-30T09:39:25;21.70;99.90
15413;DHT22;7805;49.554;7.632;2023-07-30T09:41:52;21.60;99.90
15413;DHT22;7805;49.554;7.632;2023-07-30T09:44:20;21.60;99.90
15413;DHT22;7805;49.554;7.632;2023-07-30T09:46:49;21.70;99.90
15413;DHT22;7805;49.554;7.632;2023-07-30T09:49:16;21.70;99.90
15413;DHT22;7805;49.554;7.632;2023-07-30T09:51:42;21.70;99.90
15413;DHT22;7805;49.554;7.632;2023-07-30T09:54:09;21.90;99.90
15413;DHT22;7805;49.554;7.632;2023-07-30T09:56:36;22.20;99.90
15413;DHT22;7805;49.554;7.632;2023-07-30T09:59:04;22.60;99.90
15413;DHT22;7805;49.554;7.632;2023-07-30T10:01:30;22.60;99.90
15413;DHT22;7805;49.554;7.632;2023-07-30T10:03:57;22.40;99.90
15413;DHT22;7805;49.554;7.632;2023-07-30T10:06:25;22.30;99.70
15413;DHT22;7805;49.554;7.632;2023-07-30T10:08:53;22.30;99.90
15413;DHT22;7805;49.554;7.632;2023-07-30T10:11:20;22.70;99.90
15413;DHT22;7805;49.554;7.632;2023-07-30T10:13:46;23.10;99.50
15413;DHT22;7805;49.554;7.632;2023-07-30T10:16:12;23.30;98.90
15413;DHT22;7805;49.554;7.632;2023-07-30T10:18:42;23.20;97.30
15413;DHT22;7805;49.554;7.632;2023-07-30T10:21:10;23.20;96.60
15413;DHT22;7805;49.554;7.632;2023-07-30T10:23:45;23.20;97.10
15413;DHT22;7805;49.554;7.632;2023-07-30T10:26:11;23.30;96.70
15413;DHT22;7805;49.554;7.632;2023-07-30T10:28:37;23.20;96.40
15413;DHT22;7805;49.554;7.632;2023-07-30T10:31:06;23.20;96.70
15413;DHT22;7805;49.554;7.632;2023-07-30T10:33:51;23.30;96.90
15413;DHT22;7805;49.554;7.632;2023-07-30T10:36:35;22.70;97.00
15413;DHT22;7805;49.554;7.632;2023-07-30T10:39:25;22.60;97.70
15413;DHT22;7805;49.554;7.632;2023-07-30T10:41:54;22.40;97.30
15413;DHT22;7805;49.554;7.632;2023-07-30T10:46:54;22.20;97.30
15413;DHT22;7805;49.554;7.632;2023-07-30T10:49:20;22.00;97.30
15413;DHT22;7805;49.554;7.632;2023-07-30T10:51:46;21.80;97.70
15413;DHT22;7805;49.554;7.632;2023-07-30T10:54:11;21.70;97.40
15413;DHT22;7805;49.554;7.632;2023-07-30T10:56:37;21.80;98.20
15413;DHT22;7805;49.554;7.632;2023-07-30T10:59:05;21.70;97.70
15413;DHT22;7805;49.554;7.632;2023-07-30T11:01:41;21.70;97.20
15413;DHT22;7805;49.554;7.632;2023-07-30T11:04:18;21.70;96.90
15413;DHT22;7805;49.554;7.632;2023-07-30T11:06:48;21.60;97.30
15413;DHT22;7805;49.554;7.632;2023-07-30T11:09:23;21.70;97.20
15413;DHT22;7805;49.554;7.632;2023-07-30T11:11:50;21.90;97.40
15413;DHT22;7805;49.554;7.632;2023-07-30T11:14:19;22.10;97.30
15413;DHT22;7805;49.554;7.632;2023-07-30T11:16:52;22.40;96.90
15413;DHT22;7805;49.554;7.632;2023-07-30T11:19:18;22.60;96.60
15413;DHT22;7805;49.554;7.632;2023-07-30T11:21:48;23.00;96.40
15413;DHT22;7805;49.554;7.632;2023-07-30T11:24:13;23.50;96.10
15413;DHT22;7805;49.554;7.632;2023-07-30T11:26:39;23.50;94.90
15413;DHT22;7805;49.554;7.632;2023-07-30T11:29:18;23.50;95.60
15413;DHT22;7805;49.554;7.632;2023-07-30T11:31:44;23.50;94.30
15413;DHT22;7805;49.554;7.632;2023-07-30T11:34:11;23.10;94.80
15413;DHT22;7805;49.554;7.632;2023-07-30T11:36:37;23.20;94.80
15413;DHT22;7805;49.554;7.632;2023-07-30T11:39:03;23.00;94.90
15413;DHT22;7805;49.554;7.632;2023-07-30T11:41:29;23.10;94.80
15413;DHT22;7805;49.554;7.632;2023-07-30T11:43:55;23.60;95.10
15413;DHT22;7805;49.554;7.632;2023-07-30T11:46:21;24.20;94.40
15413;DHT22;7805;49.554;7.632;2023-07-30T11:48:49;24.20;91.40
15413;DHT22;7805;49.554;7.632;2023-07-30T11:51:22;23.90;90.50
15413;DHT22;7805;49.554;7.632;2023-07-30T11:53:50;23.60;90.40
15413;DHT22;7805;49.554;7.632;2023-07-30T11:56:27;23.30;91.20
15413;DHT22;7805;49.554;7.632;2023-07-30T11:58:55;22.90;91.40
15413;DHT22;7805;49.554;7.632;2023-07-30T12:01:24;22.80;92.10
15413;DHT22;7805;49.554;7.632;2023-07-30T12:03:49;22.70;92.50
15413;DHT22;7805;49.554;7.632;2023-07-30T12:06:15;22.20;92.80
15413;DHT22;7805;49.554;7.632;2023-07-30T12:08:41;22.20;93.80
15413;DHT22;7805;49.554;7.632;2023-07-30T12:11:08;22.10;94.20
15413;DHT22;7805;49.554;7.632;2023-07-30T12:13:34;21.70;94.50
15413;DHT22;7805;49.554;7.632;2023-07-30T12:16:06;21.70;95.30
15413;DHT22;7805;49.554;7.632;2023-07-30T12:18:32;22.00;94.90
15413;DHT22;7805;49.554;7.632;2023-07-30T12:20:57;22.40;95.10
15413;DHT22;7805;49.554;7.632;2023-07-30T12:23:23;22.40;94.70
15413;DHT22;7805;49.554;7.632;2023-07-30T12:25:50;22.50;95.10
15413;DHT22;7805;49.554;7.632;2023-07-30T12:28:15;22.40;93.80
15413;DHT22;7805;49.554;7.632;2023-07-30T12:30:41;22.40;94.80
15413;DHT22;7805;49.554;7.632;2023-07-30T12:33:06;22.60;94.60
15413;DHT22;7805;49.554;7.632;2023-07-30T12:35:33;22.60;94.70
15413;DHT22;7805;49.554;7.632;2023-07-30T12:38:01;23.00;94.80
15413;DHT22;7805;49.554;7.632;2023-07-30T12:40:27;23.20;94.10
15413;DHT22;7805;49.554;7.632;2023-07-30T12:42:55;23.60;93.70
15413;DHT22;7805;49.554;7.632;2023-07-30T12:45:20;23.80;92.60
15413;DHT22;7805;49.554;7.632;2023-07-30T12:47:46;24.00;92.40
15413;DHT22;7805;49.554;7.632;2023-07-30T12:50:12;24.00;91.20
15413;DHT22;7805;49.554;7.632;2023-07-30T12:52:38;23.90;91.70
15413;DHT22;7805;49.554;7.632;2023-07-30T12:55:03;23.90;91.70
15413;DHT22;7805;49.554;7.632;2023-07-30T12:57:30;23.70;91.90
15413;DHT22;7805;49.554;7.632;2023-07-30T12:59:56;23.70;91.80
15413;DHT22;7805;49.554;7.632;2023-07-30T13:02:21;23.50;91.90
15413;DHT22;7805;49.554;7.632;2023-07-30T13:04:47;23.60;92.00
15413;DHT22;7805;49.554;7.632;2023-07-30T13:07:12;24.00;91.80
15413;DHT22;7805;49.554;7.632;2023-07-30T13:09:38;24.70;91.70
15413;DHT22;7805;49.554;7.632;2023-07-30T13:12:04;25.30;90.50
15413;DHT22;7805;49.554;7.632;2023-07-30T13:14:29;25.80;88.80
15413;DHT22;7805;49.554;7.632;2023-07-30T13:16:55;25.70;86.20
15413;DHT22;7805;49.554;7.632;2023-07-30T13:19:20;25.20;85.30
15413;DHT22;7805;49.554;7.632;2023-07-30T13:21:46;24.80;85.70
15413;DHT22;7805;49.554;7.632;2023-07-30T13:24:11;24.40;85.60
15413;DHT22;7805;49.554;7.632;2023-07-30T13:26:37;24.10;86.50
15413;DHT22;7805;49.554;7.632;2023-07-30T13:29:04;23.80;87.40
15413;DHT22;7805;49.554;7.632;2023-07-30T13:31:29;23.60;87.90
15413;DHT22;7805;49.554;7.632;2023-07-30T13:33:55;23.60;89.50
15413;DHT22;7805;49.554;7.632;2023-07-30T13:36:21;23.20;88.30
15413;DHT22;7805;49.554;7.632;2023-07-30T13:38:46;23.30;88.30
15413;DHT22;7805;49.554;7.632;2023-07-30T13:41:12;23.30;87.20
15413;DHT22;7805;49.554;7.632;2023-07-30T13:43:38;23.30;86.80
15413;DHT22;7805;49.554;7.632;2023-07-30T13:46:04;23.20;85.90
15413;DHT22;7805;49.554;7.632;2023-07-30T13:48:30;23.40;85.90
15413;DHT22;7805;49.554;7.632;2023-07-30T13:50:55;23.30;83.70
15413;DHT22;7805;49.554;7.632;2023-07-30T13:53:21;23.60;86.40
15413;DHT22;7805;49.554;7.632;2023-07-30T13:55:46;23.80;85.10
15413;DHT22;7805;49.554;7.632;2023-07-30T13:58:12;24.10;84.80
15413;DHT22;7805;49.554;7.632;2023-07-30T14:00:40;24.60;84.70
15413;DHT22;7805;49.554;7.632;2023-07-30T14:03:05;25.10;82.70
15413;DHT22;7805;49.554;7.632;2023-07-30T14:05:31;25.60;82.20
15413;DHT22;7805;49.554;7.632;2023-07-30T14:07:57;25.60;80.00
15413;DHT22;7805;49.554;7.632;2023-07-30T14:10:23;25.60;77.30
15413;DHT22;7805;49.554;7.632;2023-07-30T14:12:49;25.20;78.20
15413;DHT22;7805;49.554;7.632;2023-07-30T14:15:15;25.40;78.80
15413;DHT22;7805;49.554;7.632;2023-07-30T14:17:41;25.60;79.80
15413;DHT22;7805;49.554;7.632;2023-07-30T14:20:07;25.80;76.50
15413;DHT22;7805;49.554;7.632;2023-07-30T14:22:34;25.70;75.30
15413;DHT22;7805;49.554;7.632;2023-07-30T14:24:59;25.70;74.00
15413;DHT22;7805;49.554;7.632;2023-07-30T14:27:25;25.60;75.10
15413;DHT22;7805;49.554;7.632;2023-07-30T14:29:51;25.60;75.00
15413;DHT22;7805;49.554;7.632;2023-07-30T14:32:18;25.20;76.30
15413;DHT22;7805;49.554;7.632;2023-07-30T14:34:44;25.30;78.20
15413;DHT22;7805;49.554;7.632;2023-07-30T14:37:10;24.80;75.10
15413;DHT22;7805;49.554;7.632;2023-07-30T14:39:35;24.20;76.30
15413;DHT22;7805;49.554;7.632;2023-07-30T14:42:01;24.10;78.10
15413;DHT22;7805;49.554;7.632;2023-07-30T14:44:26;24.10;79.00
15413;DHT22;7805;49.554;7.632;2023-07-30T14:46:52;23.90;79.20
15413;DHT22;7805;49.554;7.632;2023-07-30T14:49:18;23.80;79.70
15413;DHT22;7805;49.554;7.632;2023-07-30T14:51:43;23.80;81.00
15413;DHT22;7805;49.554;7.632;2023-07-30T14:54:09;23.70;80.20
15413;DHT22;7805;49.554;7.632;2023-07-30T14:56:35;23.70;80.30
15413;DHT22;7805;49.554;7.632;2023-07-30T14:59:01;23.80;79.90
15413;DHT22;7805;49.554;7.632;2023-07-30T15:01:30;23.70;79.30
15413;DHT22;7805;49.554;7.632;2023-07-30T15:03:55;23.60;78.80
15413;DHT22;7805;49.554;7.632;2023-07-30T15:06:21;23.40;79.30
15413;DHT22;7805;49.554;7.632;2023-07-30T15:08:47;23.60;81.10
15413;DHT22;7805;49.554;7.632;2023-07-30T15:11:13;23.70;78.70
15413;DHT22;7805;49.554;7.632;2023-07-30T15:13:39;23.60;79.90
15413;DHT22;7805;49.554;7.632;2023-07-30T15:16:05;23.60;80.30
15413;DHT22;7805;49.554;7.632;2023-07-30T15:18:31;23.60;80.50
15413;DHT22;7805;49.554;7.632;2023-07-30T15:20:57;23.60;80.20
15413;DHT22;7805;49.554;7.632;2023-07-30T15:23:22;23.70;81.80
15413;DHT22;7805;49.554;7.632;2023-07-30T15:25:48;23.60;81.10
15413;DHT22;7805;49.554;7.632;2023-07-30T15:28:18;23.70;81.50
15413;DHT22;7805;49.554;7.632;2023-07-30T15:30:44;23.50;80.80
15413;DHT22;7805;49.554;7.632;2023-07-30T15:33:10;23.70;82.10
15413;DHT22;7805;49.554;7.632;2023-07-30T15:35:36;23.70;82.70
15413;DHT22;7805;49.554;7.632;2023-07-30T15:38:05;24.00;82.80
15413;DHT22;7805;49.554;7.632;2023-07-30T15:40:31;23.80;83.50
15413;DHT22;7805;49.554;7.632;2023-07-30T15:42:57;23.70;82.50
15413;DHT22;7805;49.554;7.632;2023-07-30T15:45:23;23.90;83.30